createdAt,value
2019-01-19T00:00:40.511Z,-5.15
2019-01-19T00:03:49.981Z,-5.18
2019-01-19T00:07:00.836Z,-5.21
2019-01-19T00:10:29.378Z,-5.23
2019-01-19T00:13:38.860Z,-5.21
2019-01-19T00:16:49.768Z,-5.19
2019-01-19T00:20:00.649Z,-5.23
2019-01-19T00:23:11.460Z,-5.31
2019-01-19T00:26:20.936Z,-5.37
2019-01-19T00:29:31.772Z,-5.40
2019-01-19T00:32:42.576Z,-5.43
2019-01-19T00:35:52.091Z,-5.46
2019-01-19T00:39:02.952Z,-5.46
2019-01-19T00:42:12.460Z,-5.53
2019-01-19T00:45:23.283Z,-5.57
2019-01-19T00:48:32.777Z,-5.67
2019-01-19T00:51:43.637Z,-5.62
2019-01-19T00:54:54.532Z,-5.64
2019-01-19T00:58:05.368Z,-5.77
2019-01-19T01:01:16.183Z,-5.84
2019-01-19T01:04:25.774Z,-5.82
2019-01-19T01:07:35.301Z,-5.77
2019-01-19T01:10:46.166Z,-5.85
2019-01-19T01:13:55.664Z,-5.78
2019-01-19T01:17:06.526Z,-5.75
2019-01-19T01:20:17.350Z,-5.71
2019-01-19T01:23:26.858Z,-5.76
2019-01-19T01:26:37.734Z,-5.75
2019-01-19T01:29:47.239Z,-5.75
2019-01-19T01:32:58.135Z,-5.77
2019-01-19T01:36:07.702Z,-5.92
2019-01-19T01:39:17.232Z,-5.93
2019-01-19T01:42:26.707Z,-5.96
2019-01-19T01:45:36.221Z,-6.07
2019-01-19T01:48:47.139Z,-6.05
2019-01-19T01:52:15.792Z,-5.95
2019-01-19T01:55:26.598Z,-5.72
2019-01-19T01:58:37.374Z,-5.67
2019-01-19T02:02:06.294Z,-5.65
2019-01-19T02:05:15.806Z,-5.69
2019-01-19T02:08:26.683Z,-5.75
2019-01-19T02:11:37.527Z,-5.84
2019-01-19T02:14:47.028Z,-5.88
2019-01-19T02:17:56.542Z,-6.00
2019-01-19T02:21:07.432Z,-6.01
2019-01-19T02:24:18.275Z,-5.94
2019-01-19T02:27:27.787Z,-5.79
2019-01-19T02:30:38.589Z,-5.68
2019-01-19T02:33:48.062Z,-5.78
2019-01-19T02:37:17.996Z,-5.84
2019-01-19T02:40:28.849Z,-5.86
2019-01-19T02:43:38.391Z,-5.98
2019-01-19T02:46:47.900Z,-6.05
2019-01-19T02:49:57.680Z,-6.18
2019-01-19T02:53:08.569Z,-6.26
2019-01-19T02:56:18.047Z,-6.24
2019-01-19T02:59:47.935Z,-6.32
2019-01-19T03:02:58.815Z,-6.33
2019-01-19T03:06:09.691Z,-6.37
2019-01-19T03:09:39.687Z,-6.41
2019-01-19T03:12:49.228Z,-6.46
2019-01-19T03:16:00.119Z,-6.46
2019-01-19T03:19:10.996Z,-6.44
2019-01-19T03:22:20.514Z,-6.51
2019-01-19T03:25:29.997Z,-6.48
2019-01-19T03:28:40.839Z,-6.36
2019-01-19T03:31:50.307Z,-6.38
2019-01-19T03:34:59.807Z,-6.40
2019-01-19T03:38:09.335Z,-6.33
2019-01-19T03:41:20.138Z,-6.43
2019-01-19T03:44:30.976Z,-6.36
2019-01-19T03:47:41.872Z,-6.36
2019-01-19T03:50:52.782Z,-6.45
2019-01-19T03:54:02.328Z,-6.42
2019-01-19T03:57:13.169Z,-6.45
2019-01-19T04:00:24.000Z,-6.49
2019-01-19T04:03:34.838Z,-6.65
2019-01-19T04:06:44.314Z,-6.75
2019-01-19T04:10:14.268Z,-6.76
2019-01-19T04:13:23.800Z,-6.77
2019-01-19T04:16:34.692Z,-6.78
2019-01-19T04:20:04.650Z,-6.78
2019-01-19T04:26:25.999Z,-6.80
2019-01-19T04:32:07.730Z,-6.90
2019-01-19T04:34:57.902Z,-6.94
2019-01-19T04:37:48.125Z,-6.90
2019-01-19T04:40:19.034Z,-6.95
2019-01-19T04:46:06.288Z,-6.94
2019-01-19T04:51:47.883Z,-7.06
2019-01-19T04:54:18.923Z,-7.15
2019-01-19T04:56:49.894Z,-7.13
2019-01-19T04:59:20.789Z,-7.13
2019-01-19T05:01:51.773Z,-7.14
2019-01-19T05:04:22.716Z,-7.22
2019-01-19T05:06:53.758Z,-7.22
2019-01-19T05:12:58.858Z,-7.16
2019-01-19T05:15:29.801Z,-7.16
2019-01-19T05:18:01.060Z,-7.21
2019-01-19T05:20:31.992Z,-7.25
2019-01-19T05:23:03.054Z,-7.32
2019-01-19T05:25:33.937Z,-7.36
2019-01-19T05:28:05.021Z,-7.44
2019-01-19T05:30:36.019Z,-7.46
2019-01-19T05:33:06.932Z,-7.52
2019-01-19T05:35:37.894Z,-7.54
2019-01-19T05:38:08.873Z,-7.55
2019-01-19T05:40:59.002Z,-7.64
2019-01-19T05:43:30.004Z,-7.75
2019-01-19T05:46:00.947Z,-7.78
2019-01-19T05:48:31.949Z,-7.77
2019-01-19T05:51:02.949Z,-7.74
2019-01-19T05:53:53.154Z,-7.79
2019-01-19T05:56:43.299Z,-7.75
2019-01-19T05:59:33.431Z,-7.75
2019-01-19T06:02:04.457Z,-7.60
2019-01-19T06:04:54.775Z,-7.67
2019-01-19T06:07:26.021Z,-7.75
2019-01-19T06:09:57.092Z,-7.83
2019-01-19T06:12:47.499Z,-7.87
2019-01-19T06:15:37.454Z,-7.82
2019-01-19T06:24:54.179Z,-7.62
2019-01-19T06:27:44.484Z,-7.70
2019-01-19T06:30:55.308Z,-7.66
2019-01-19T06:33:26.311Z,-7.73
2019-01-19T06:35:57.256Z,-7.89
2019-01-19T06:39:06.350Z,-7.93
2019-01-19T06:41:37.413Z,-7.95
2019-01-19T06:44:27.606Z,-7.86
2019-01-19T06:46:58.602Z,-7.83
2019-01-19T06:49:48.935Z,-7.88
2019-01-19T06:52:19.945Z,-7.90
2019-01-19T06:55:30.700Z,-7.89
2019-01-19T06:58:20.979Z,-7.81
2019-01-19T07:01:11.090Z,-7.79
2019-01-19T07:04:01.399Z,-7.80
2019-01-19T07:07:10.698Z,-7.84
2019-01-19T07:10:01.259Z,-7.84
2019-01-19T07:13:11.725Z,-7.80
2019-01-19T07:16:01.849Z,-7.70
2019-01-19T07:22:25.883Z,-7.49
2019-01-19T07:25:15.911Z,-7.48
2019-01-19T07:27:46.862Z,-7.35
2019-01-19T07:30:57.764Z,-7.12
2019-01-19T07:33:48.058Z,-6.92
2019-01-19T07:36:38.283Z,-6.32
2019-01-19T07:39:47.576Z,-5.97
2019-01-19T07:42:18.816Z,-5.87
2019-01-19T07:44:49.825Z,-5.83
2019-01-19T07:50:56.418Z,-5.58
2019-01-19T07:56:36.495Z,-5.07
2019-01-19T07:59:26.603Z,-5.03
2019-01-19T08:02:16.995Z,-5.08
2019-01-19T08:05:07.220Z,-4.94
2019-01-19T08:07:38.136Z,-4.66
2019-01-19T08:10:28.217Z,-4.19
2019-01-19T08:13:18.390Z,-3.43
2019-01-19T08:15:49.365Z,-2.89
2019-01-19T08:18:20.337Z,-2.42
2019-01-19T08:20:51.300Z,-1.96
2019-01-19T08:23:22.275Z,-1.50
2019-01-19T08:26:12.508Z,-1.25
2019-01-19T08:28:43.494Z,-1.13
2019-01-19T08:31:14.565Z,-0.98
2019-01-19T08:34:33.881Z,-0.81
2019-01-19T08:37:44.702Z,-0.34
2019-01-19T08:40:56.270Z,0.23
2019-01-19T08:44:25.694Z,0.84
2019-01-19T08:46:56.624Z,1.13
2019-01-19T08:49:27.490Z,1.76
2019-01-19T08:55:48.826Z,2.01
2019-01-19T09:01:29.031Z,3.42
2019-01-19T09:04:19.249Z,3.73
2019-01-19T09:10:44.925Z,4.52
2019-01-19T09:13:35.180Z,4.81
2019-01-19T09:16:45.972Z,5.02
2019-01-19T09:25:32.809Z,6.10
2019-01-19T09:28:03.717Z,6.09
2019-01-19T09:30:34.796Z,5.05
2019-01-19T09:33:25.007Z,5.38
2019-01-19T09:39:10.488Z,7.21
2019-01-19T09:42:00.806Z,7.53
2019-01-19T09:44:44.236Z,7.14
2019-01-19T09:47:15.132Z,7.14
2019-01-19T09:50:45.075Z,7.13
2019-01-19T09:53:35.196Z,6.44
2019-01-19T09:56:06.242Z,6.26
2019-01-19T09:58:56.482Z,6.52
2019-01-19T10:01:27.339Z,7.37
2019-01-19T10:04:17.527Z,7.68
2019-01-19T10:07:07.650Z,7.80
2019-01-19T10:09:38.613Z,8.45
2019-01-19T10:18:33.450Z,8.82
2019-01-19T10:27:37.442Z,9.75
2019-01-19T10:30:45.676Z,10.02
2019-01-19T10:33:36.065Z,9.49
2019-01-19T10:39:16.139Z,9.41
2019-01-19T10:42:06.333Z,9.69
2019-01-19T10:44:56.371Z,9.97
2019-01-19T10:50:57.007Z,10.43
2019-01-19T10:53:47.248Z,11.08
2019-01-19T10:56:58.080Z,11.36
2019-01-19T10:59:48.169Z,11.58
2019-01-19T11:02:58.991Z,10.76
2019-01-19T11:06:08.253Z,11.51
2019-01-19T11:08:39.325Z,11.54
2019-01-19T11:11:29.387Z,10.84
2019-01-19T11:14:19.597Z,11.03
2019-01-19T11:17:09.821Z,11.22
2019-01-19T11:20:00.040Z,11.38
2019-01-19T11:22:50.258Z,12.24
2019-01-19T11:25:21.383Z,12.96
2019-01-19T11:28:11.536Z,13.22
2019-01-19T11:31:01.809Z,13.21
2019-01-19T11:33:32.705Z,12.52
2019-01-19T11:36:03.846Z,13.04
2019-01-19T11:38:34.878Z,12.41
2019-01-19T11:41:05.887Z,12.37
2019-01-19T11:43:36.901Z,12.92
2019-01-19T11:46:07.905Z,12.59
2019-01-19T11:51:47.844Z,14.73
2019-01-19T11:54:19.023Z,13.98
2019-01-19T11:57:09.187Z,13.79
2019-01-19T12:03:34.300Z,12.19
2019-01-19T12:06:05.362Z,11.93
2019-01-19T12:11:47.207Z,12.57
2019-01-19T12:14:37.731Z,12.43
2019-01-19T12:17:27.867Z,12.94
2019-01-19T12:19:58.840Z,13.86
2019-01-19T12:22:29.918Z,13.74
2019-01-19T12:25:40.801Z,13.72
2019-01-19T12:28:11.843Z,13.58
2019-01-19T12:31:02.079Z,13.79
2019-01-19T12:33:52.220Z,13.45
2019-01-19T12:36:23.262Z,12.66
2019-01-19T12:38:56.664Z,13.08
2019-01-19T12:41:27.715Z,13.02
2019-01-19T12:43:58.615Z,13.73
2019-01-19T12:46:29.556Z,13.79
2019-01-19T12:49:00.494Z,13.41
2019-01-19T12:51:31.500Z,13.32
2019-01-19T12:54:02.439Z,12.70
2019-01-19T12:56:33.543Z,10.97
2019-01-19T12:59:04.595Z,10.54
2019-01-19T13:01:35.819Z,11.20
2019-01-19T13:04:07.004Z,13.30
2019-01-19T13:07:17.854Z,15.20
2019-01-19T13:10:07.923Z,16.39
2019-01-19T13:12:58.157Z,12.29
2019-01-19T13:16:09.092Z,13.14
2019-01-19T13:19:19.888Z,12.07
2019-01-19T13:22:48.578Z,13.89
2019-01-19T13:25:59.387Z,12.10
2019-01-19T13:29:08.957Z,12.70
2019-01-19T13:32:18.576Z,10.96
2019-01-19T13:35:28.151Z,8.92
2019-01-19T13:38:42.049Z,9.96
2019-01-19T13:42:29.697Z,10.93
2019-01-19T13:45:39.249Z,9.43
2019-01-19T13:48:50.090Z,9.57
2019-01-19T13:52:21.008Z,11.13
2019-01-19T13:55:54.019Z,9.93
2019-01-19T13:59:22.573Z,8.07
2019-01-19T14:02:32.112Z,8.43
2019-01-19T14:05:41.598Z,7.76
2019-01-19T14:08:51.113Z,8.35
2019-01-19T14:12:00.653Z,9.11
2019-01-19T14:15:11.599Z,8.71
2019-01-19T14:18:22.497Z,8.58
2019-01-19T14:21:33.295Z,8.63
2019-01-19T14:24:42.850Z,8.26
2019-01-19T14:27:52.280Z,7.22
2019-01-19T14:31:03.450Z,7.28
2019-01-19T14:34:14.300Z,7.31
2019-01-19T14:37:25.108Z,6.33
2019-01-19T14:40:42.418Z,5.72
2019-01-19T14:43:52.105Z,6.89
2019-01-19T14:47:22.032Z,6.59
2019-01-19T14:50:32.033Z,5.99
2019-01-19T14:53:41.657Z,6.48
2019-01-19T14:56:51.210Z,5.96
2019-01-19T15:00:00.690Z,5.02
2019-01-19T15:03:11.570Z,5.11
2019-01-19T15:06:21.029Z,4.99
2019-01-19T15:09:30.523Z,3.75
2019-01-19T15:13:00.449Z,3.01
2019-01-19T15:16:11.250Z,2.68
2019-01-19T15:19:22.078Z,2.38
2019-01-19T15:22:31.935Z,1.99
2019-01-19T15:25:42.768Z,1.68
2019-01-19T15:28:52.225Z,1.46
2019-01-19T15:35:58.017Z,1.07
2019-01-19T15:39:11.030Z,0.95
2019-01-19T15:42:58.401Z,0.83
2019-01-19T15:46:09.254Z,0.68
2019-01-19T15:49:18.821Z,0.53
2019-01-19T15:52:28.306Z,0.40
2019-01-19T15:58:54.697Z,-0.03
2019-01-19T16:02:05.551Z,-0.27
2019-01-19T16:05:34.112Z,-0.47
2019-01-19T16:08:44.965Z,-0.71
2019-01-19T16:11:54.421Z,-0.87
2019-01-19T16:15:03.902Z,-0.86
2019-01-19T16:18:14.694Z,-0.92
2019-01-19T16:21:24.361Z,-0.92
2019-01-19T16:24:35.179Z,-1.00
2019-01-19T16:27:45.972Z,-1.00
2019-01-19T16:30:56.860Z,-1.07
2019-01-19T16:34:07.693Z,-1.24
2019-01-19T16:37:17.194Z,-1.30
2019-01-19T16:40:26.739Z,-1.36
2019-01-19T16:43:37.576Z,-1.28
2019-01-19T16:56:48.700Z,-1.54
2019-01-19T16:59:59.613Z,-1.75
2019-01-19T17:03:11.817Z,-1.95
2019-01-19T17:06:59.794Z,-2.06
2019-01-19T17:10:09.326Z,-2.34
2019-01-19T17:13:20.270Z,-2.53
2019-01-19T17:16:29.745Z,-2.61
2019-01-19T17:19:39.234Z,-2.56
2019-01-19T17:22:48.740Z,-2.57
2019-01-19T17:26:17.344Z,-2.47
2019-01-19T17:29:28.198Z,-2.39
2019-01-19T17:32:39.045Z,-2.40
2019-01-19T17:35:48.556Z,-2.51
2019-01-19T17:38:59.377Z,-2.66
2019-01-19T17:42:08.905Z,-2.66
2019-01-19T17:45:18.458Z,-2.77
2019-01-19T17:48:27.979Z,-2.89
2019-01-19T17:51:38.874Z,-3.05
2019-01-19T17:54:48.416Z,-3.13
2019-01-19T17:57:58.053Z,-3.22
2019-01-19T18:01:07.775Z,-3.20
2019-01-19T18:04:18.656Z,-3.15
2019-01-19T18:07:28.170Z,-3.14
2019-01-19T18:10:39.063Z,-3.07
2019-01-19T18:13:49.895Z,-2.94
2019-01-19T18:16:59.373Z,-2.92
2019-01-19T18:20:08.892Z,-2.92
2019-01-19T18:23:18.371Z,-2.96
2019-01-19T18:26:27.885Z,-3.07
2019-01-19T18:29:37.407Z,-3.13
2019-01-19T18:32:48.293Z,-3.12
2019-01-19T18:35:59.155Z,-3.02
2019-01-19T18:39:10.071Z,-3.07
2019-01-19T18:42:19.526Z,-3.16
2019-01-19T18:45:29.033Z,-3.32
2019-01-19T18:48:39.847Z,-3.42
2019-01-19T18:51:50.681Z,-3.60
2019-01-19T18:55:01.623Z,-3.67
2019-01-19T18:58:11.232Z,-3.65
2019-01-19T19:01:23.003Z,-3.43
2019-01-19T19:04:33.830Z,-3.33
2019-01-19T19:07:44.811Z,-3.21
2019-01-19T19:10:54.450Z,-3.26
2019-01-19T19:14:03.981Z,-3.18
2019-01-19T19:17:14.821Z,-3.17
2019-01-19T19:20:43.401Z,-3.19
2019-01-19T19:23:54.369Z,-3.26
2019-01-19T19:27:03.860Z,-3.20
2019-01-19T19:30:13.362Z,-3.18
2019-01-19T19:33:24.385Z,-3.23
2019-01-19T19:36:35.688Z,-3.27
2019-01-19T19:40:25.175Z,-3.28
2019-01-19T19:43:36.039Z,-3.27
2019-01-19T19:46:46.893Z,-3.35
2019-01-19T19:49:56.914Z,-3.33
2019-01-19T19:52:47.373Z,-3.30
2019-01-19T20:02:06.759Z,-3.29
2019-01-19T20:04:57.018Z,-3.36
2019-01-19T20:21:23.245Z,-3.42
2019-01-19T20:24:13.960Z,-3.40
2019-01-19T20:26:45.089Z,-3.38
2019-01-19T20:29:16.177Z,-3.40
2019-01-19T20:34:56.454Z,-3.54
2019-01-19T20:37:47.369Z,-3.62
2019-01-19T20:40:37.544Z,-3.70
2019-01-19T20:46:44.295Z,-3.71
2019-01-19T20:49:55.659Z,-3.74
2019-01-19T20:52:46.161Z,-3.79
2019-01-19T20:59:31.313Z,-3.84
2019-01-19T21:02:22.086Z,-3.97
2019-01-19T21:08:23.189Z,-3.91
2019-01-19T21:11:13.589Z,-3.92
2019-01-19T21:14:23.542Z,-3.99
2019-01-19T21:17:55.868Z,-4.08
2019-01-19T21:21:04.665Z,-4.11
2019-01-19T21:23:55.184Z,-4.06
2019-01-19T21:26:26.258Z,-4.05
2019-01-19T21:29:16.478Z,-4.10
2019-01-19T21:32:06.532Z,-4.17
2019-01-19T21:34:56.755Z,-4.20
2019-01-19T21:37:47.169Z,-4.14
2019-01-19T21:40:39.201Z,-4.17
2019-01-19T21:47:23.684Z,-4.14
2019-01-19T21:50:13.893Z,-4.20
2019-01-19T21:52:44.857Z,-4.26
2019-01-19T21:55:35.120Z,-4.22
2019-01-19T21:58:25.160Z,-4.23
2019-01-19T22:00:56.322Z,-4.32
2019-01-19T22:03:46.375Z,-4.42
2019-01-19T22:06:17.425Z,-4.50
2019-01-19T22:08:48.305Z,-4.54
2019-01-19T22:11:58.213Z,-4.63
2019-01-19T22:14:48.408Z,-4.66
2019-01-19T22:20:55.139Z,-4.87
2019-01-19T22:23:45.315Z,-4.85
2019-01-19T22:29:52.242Z,-4.98
2019-01-19T22:32:42.749Z,-5.06
2019-01-19T22:35:53.583Z,-5.16
2019-01-19T22:38:43.772Z,-5.25
2019-01-19T22:41:14.658Z,-5.20
2019-01-19T22:44:44.556Z,-5.17
2019-01-19T22:47:15.516Z,-5.13
2019-01-19T22:50:05.560Z,-5.13
2019-01-19T22:56:06.570Z,-5.14
2019-01-19T22:58:56.761Z,-5.19
2019-01-19T23:02:07.597Z,-5.26
2019-01-19T23:04:57.699Z,-5.27
2019-01-19T23:07:28.616Z,-5.29
2019-01-19T23:09:59.516Z,-5.32
2019-01-19T23:12:30.523Z,-5.33
2019-01-19T23:17:42.073Z,-5.35
2019-01-19T23:24:07.497Z,-5.40
2019-01-19T23:30:08.461Z,-5.41
2019-01-19T23:32:39.340Z,-5.45
2019-01-19T23:35:29.583Z,-5.48
2019-01-19T23:38:19.852Z,-5.52
2019-01-19T23:41:10.038Z,-5.54
2019-01-19T23:43:40.976Z,-5.58
2019-01-19T23:46:12.118Z,-5.57
2019-01-19T23:48:42.969Z,-5.67
2019-01-19T23:51:53.665Z,-5.74
2019-01-19T23:54:24.689Z,-5.80
2019-01-19T23:56:55.628Z,-5.89
2019-01-19T23:59:45.982Z,-5.96
